»·PEaware :: N821AN L52-L88

N821AN :: L52-L88

FLIGHT INFORMATION

Flight Status: Arrived
Operator: Privately registered:
United States
More flights under this callsign
Pilot: Andre N. (13929)
Aircraft: CESSNA 172 SKYHAWK
(C172)
More flights by this aircraft type
Origin: L52 Oceano Co
United States
Destination: L88 New Cuyama
United States
More flights between these airports :: More routes between these airports
Route:
File this flight plan on PilotEdge
Remarks:
Altitude:
(Current/Filed)
5,500ft
Speed:
(Current/Filed)
120kts
Departed: 07-Mar-18 09:46 AM
Arrived: 07-Mar-18 10:30 AM
Distance/Time
Traveled:
47nm/0:44
Distance/Time
To Go:
Arrived

Flight Plot

Page will automatically refresh every two minutes.


Map Options




Map Legend


Flown Route
Filed Route
Departure Airport
Arrival Airport
Navaid (VOR, NDB)
Fix

Horizontal Profiles

Position Reports

Time Latitude Longitude Heading Altitude Ground
Speed
07-Mar-18 09:43 35.103549 -120.624287 213 17ft 0kts
07-Mar-18 09:44 35.103549 -120.624287 213 17ft 0kts
07-Mar-18 09:45 35.103549 -120.624287 213 17ft 0kts
07-Mar-18 09:46 35.103238 -120.623928 122 17ft 3kts
07-Mar-18 09:47 35.103040 -120.623659 153 17ft 0kts
07-Mar-18 09:48 35.102105 -120.624219 156 17ft 6kts
07-Mar-18 09:49 35.100871 -120.621997 121 17ft 8kts
07-Mar-18 09:50 35.099632 -120.619654 123 17ft 7kts
07-Mar-18 09:51 35.099560 -120.619502 110 17ft 0kts
07-Mar-18 09:52 35.099552 -120.619468 97 17ft 1kts
07-Mar-18 09:53 35.105166 -120.629321 297 352ft 70kts
07-Mar-18 09:54 35.101477 -120.640557 101 1316ft 65kts
07-Mar-18 09:55 35.107844 -120.624401 342 2220ft 81kts
07-Mar-18 09:56 35.122123 -120.614120 107 3185ft 62kts
07-Mar-18 09:57 35.108312 -120.605735 168 3893ft 57kts
07-Mar-18 09:58 35.104726 -120.621125 302 4528ft 68kts
07-Mar-18 09:59 35.108015 -120.642447 281 5121ft 66kts
07-Mar-18 10:00 35.113707 -120.664059 281 5638ft 75kts
07-Mar-18 10:01 35.109726 -120.694561 195 5643ft 118kts
07-Mar-18 10:02 35.092389 -120.666666 106 5347ft 60kts
07-Mar-18 10:03 35.092522 -120.647324 57 5773ft 64kts
07-Mar-18 10:04 35.106585 -120.635179 98 6214ft 66kts
07-Mar-18 10:05 35.103243 -120.611232 101 6199ft 77kts
07-Mar-18 10:06 35.102001 -120.583531 96 5974ft 87kts
07-Mar-18 10:07 35.101234 -120.553336 95 5575ft 90kts
07-Mar-18 10:08 35.100277 -120.523088 95 5315ft 79kts
07-Mar-18 10:09 35.097073 -120.500863 113 5473ft 66kts
07-Mar-18 10:10 35.090154 -120.475588 108 5644ft 92kts
07-Mar-18 10:11 35.082937 -120.442958 103 5619ft 107kts
07-Mar-18 10:12 35.075907 -120.406271 101 5638ft 114kts
07-Mar-18 10:13 35.068853 -120.368038 100 5637ft 115kts
07-Mar-18 10:14 35.062061 -120.330861 101 5636ft 115kts
07-Mar-18 10:15 35.055790 -120.296487 101 5636ft 113kts
07-Mar-18 10:16 35.049294 -120.262226 102 5637ft 112kts
07-Mar-18 10:17 35.041691 -120.225246 102 5637ft 112kts
07-Mar-18 10:18 35.034763 -120.188193 101 5637ft 112kts
07-Mar-18 10:19 35.027928 -120.151037 101 5637ft 112kts
07-Mar-18 10:20 35.021163 -120.114272 101 5637ft 112kts
07-Mar-18 10:21 35.015790 -120.085143 101 5634ft 107kts
07-Mar-18 10:22 35.008341 -120.044766 101 5637ft 103kts
07-Mar-18 10:23 35.002036 -120.010654 101 5637ft 103kts
07-Mar-18 10:24 34.996767 -119.982196 101 5637ft 103kts
07-Mar-18 10:25 34.990436 -119.948064 101 5637ft 103kts
07-Mar-18 10:26 34.983398 -119.910182 101 5637ft 103kts
07-Mar-18 10:27 34.978029 -119.881384 101 5431ft 104kts
07-Mar-18 10:28 34.971314 -119.845417 101 4764ft 111kts
07-Mar-18 10:29 34.964571 -119.809321 101 4061ft 106kts
07-Mar-18 10:30 34.958046 -119.774417 101 3368ft 107kts
07-Mar-18 10:31 34.952221 -119.743301 101 3333ft 85kts
07-Mar-18 10:32 34.941522 -119.718870 138 3338ft 85kts
07-Mar-18 10:33 34.924590 -119.699033 131 3337ft 85kts
07-Mar-18 10:34 34.908477 -119.677539 130 3337ft 87kts
07-Mar-18 10:35 34.918136 -119.657643 24 3214ft 88kts
07-Mar-18 10:36 34.933738 -119.670335 297 2537ft 70kts
07-Mar-18 10:37 34.940713 -119.687474 297 2206ft 33kts
07-Mar-18 10:38 34.943307 -119.690897 27 2206ft 8kts
07-Mar-18 10:39 34.943588 -119.690761 8 2206ft 0kts
07-Mar-18 10:40 34.943588 -119.690761 8 2206ft 0kts
07-Mar-18 10:41 34.943588 -119.690761 8 2206ft 0kts

Navigation Log

Ident Type
Flight plan parsing failed, navigation log unavailable